createdAt,value
2024-01-28T00:01:38.806Z,7.37
2024-01-28T00:06:47.440Z,6.71
2024-01-28T00:11:56.406Z,6.56
2024-01-28T00:17:06.672Z,6.58
2024-01-28T00:22:14.843Z,6.85
2024-01-28T00:27:23.576Z,6.95
2024-01-28T00:32:32.767Z,7.31
2024-01-28T00:37:41.491Z,6.87
2024-01-28T00:42:50.592Z,6.63
2024-01-28T00:47:59.510Z,7.40
2024-01-28T00:53:08.856Z,7.76
2024-01-28T00:58:17.918Z,7.58
2024-01-28T01:03:27.716Z,7.02
2024-01-28T01:08:36.139Z,6.74
2024-01-28T01:13:46.354Z,6.90
2024-01-28T01:18:45.198Z,7.16
2024-01-28T01:23:54.849Z,6.89
2024-01-28T01:29:04.323Z,7.02
2024-01-28T01:34:13.216Z,6.94
2024-01-28T01:39:21.572Z,6.91
2024-01-28T01:44:31.013Z,7.18
2024-01-28T01:49:39.827Z,7.10
2024-01-28T01:54:48.443Z,7.80
2024-01-28T01:59:57.360Z,7.33
2024-01-28T02:05:06.964Z,8.73
2024-01-28T02:10:17.142Z,8.34
2024-01-28T02:15:16.066Z,8.22
2024-01-28T02:20:26.124Z,7.44
2024-01-28T02:25:25.223Z,7.66
2024-01-28T02:30:35.327Z,7.02
2024-01-28T02:35:34.491Z,7.55
2024-01-28T02:40:43.537Z,7.75
2024-01-28T02:45:52.736Z,8.06
2024-01-28T02:51:01.892Z,7.50
2024-01-28T02:56:11.101Z,7.89
2024-01-28T03:01:19.982Z,7.98
2024-01-28T03:06:29.483Z,8.31
2024-01-28T03:11:38.091Z,7.72
2024-01-28T03:16:47.280Z,7.26
2024-01-28T03:21:55.625Z,7.66
2024-01-28T03:27:04.083Z,7.51
2024-01-28T03:32:12.510Z,7.82
2024-01-28T03:37:21.369Z,7.12
2024-01-28T03:42:31.194Z,7.69
2024-01-28T03:47:41.516Z,7.68
2024-01-28T03:52:48.449Z,8.65
2024-01-28T03:57:57.138Z,7.99
2024-01-28T04:03:06.139Z,7.90
2024-01-28T04:08:14.750Z,7.55
2024-01-28T04:13:23.812Z,7.22
2024-01-28T04:18:33.970Z,7.05
2024-01-28T04:23:32.620Z,7.36
2024-01-28T04:28:42.112Z,7.31
2024-01-28T04:33:51.299Z,7.10
2024-01-28T04:39:01.037Z,7.18
2024-01-28T04:44:10.281Z,7.42
2024-01-28T04:49:19.495Z,7.09
2024-01-28T04:54:28.424Z,7.01
2024-01-28T04:59:38.549Z,7.45
2024-01-28T05:04:38.367Z,7.57
2024-01-28T05:09:47.996Z,7.45
2024-01-28T05:14:56.718Z,7.51
2024-01-28T05:20:06.897Z,7.99
2024-01-28T05:25:05.900Z,8.32
2024-01-28T05:30:14.891Z,8.79
2024-01-28T05:35:32.431Z,8.54
2024-01-28T05:40:34.418Z,10.78
2024-01-28T05:45:33.172Z,8.68
2024-01-28T05:50:42.460Z,8.77
2024-01-28T05:55:51.628Z,8.74
2024-01-28T06:01:00.820Z,9.04
2024-01-28T06:06:09.695Z,9.65
2024-01-28T06:11:18.480Z,9.42
2024-01-28T06:16:27.330Z,9.45
2024-01-28T06:21:36.833Z,8.92
2024-01-28T06:26:45.848Z,9.81
2024-01-28T06:31:54.543Z,9.12
2024-01-28T06:37:03.367Z,9.91
2024-01-28T06:42:12.521Z,9.32
2024-01-28T06:47:21.511Z,10.69
2024-01-28T06:52:31.356Z,10.18
2024-01-28T06:57:40.713Z,9.81
2024-01-28T07:02:50.509Z,9.74
2024-01-28T07:07:59.204Z,10.03
2024-01-28T07:13:10.049Z,9.80
2024-01-28T07:18:18.426Z,9.38
2024-01-28T07:23:27.679Z,9.95
2024-01-28T07:28:36.334Z,9.15
2024-01-28T07:33:45.923Z,9.80
2024-01-28T07:38:55.100Z,9.47
2024-01-28T07:43:54.450Z,9.98
2024-01-28T07:49:04.885Z,10.53
2024-01-28T07:54:03.816Z,10.68
2024-01-28T07:59:12.757Z,11.64
2024-01-28T08:04:22.099Z,11.71
2024-01-28T08:09:31.494Z,11.68
2024-01-28T08:14:41.279Z,10.95
2024-01-28T08:19:50.211Z,10.14
2024-01-28T08:24:59.306Z,10.58
2024-01-28T08:30:08.230Z,10.42
2024-01-28T08:35:18.423Z,10.62
2024-01-28T08:40:17.034Z,10.82
2024-01-28T08:45:26.598Z,10.71
2024-01-28T08:50:35.036Z,10.41
2024-01-28T08:55:43.777Z,10.68
2024-01-28T09:00:52.575Z,10.26
2024-01-28T09:06:02.967Z,11.02
2024-01-28T09:11:09.790Z,10.05
2024-01-28T09:16:18.867Z,10.42
2024-01-28T09:21:27.965Z,10.84
2024-01-28T09:26:36.778Z,10.05
2024-01-28T09:31:50.977Z,9.93
2024-01-28T09:36:50.401Z,9.84
2024-01-28T09:41:59.167Z,11.79
2024-01-28T09:47:08.495Z,12.46
2024-01-28T09:52:17.981Z,10.79
2024-01-28T09:57:26.856Z,9.47
2024-01-28T10:02:35.623Z,9.66
2024-01-28T10:07:45.145Z,9.62
2024-01-28T10:12:54.514Z,9.53
2024-01-28T10:18:03.297Z,9.31
2024-01-28T10:23:12.466Z,9.73
2024-01-28T10:28:21.804Z,9.44
2024-01-28T10:33:30.700Z,9.29
2024-01-28T10:38:39.473Z,8.20
2024-01-28T10:43:47.951Z,7.98
2024-01-28T10:48:57.176Z,7.96
2024-01-28T10:54:05.536Z,7.42
2024-01-28T10:59:14.828Z,7.41
2024-01-28T11:04:23.777Z,8.17
2024-01-28T11:09:32.755Z,8.24
2024-01-28T11:14:43.648Z,8.08
2024-01-28T11:19:49.658Z,8.39
2024-01-28T11:24:58.435Z,8.47
2024-01-28T11:30:07.420Z,7.85
2024-01-28T11:35:16.395Z,9.39
2024-01-28T11:40:25.677Z,10.05
2024-01-28T11:45:33.959Z,10.47
2024-01-28T11:50:42.819Z,9.71
2024-01-28T11:55:51.248Z,11.60
2024-01-28T12:01:00.535Z,13.69
2024-01-28T12:06:09.068Z,21.48
2024-01-28T12:11:18.413Z,19.15
2024-01-28T12:16:27.355Z,11.64
2024-01-28T12:21:36.166Z,12.58
2024-01-28T12:26:44.055Z,11.52
2024-01-28T12:31:53.182Z,10.53
2024-01-28T12:37:02.216Z,9.26
2024-01-28T12:42:11.330Z,9.36
2024-01-28T12:47:19.758Z,9.08
2024-01-28T12:52:28.572Z,8.85
2024-01-28T12:57:37.656Z,9.04
2024-01-28T13:02:47.683Z,9.09
2024-01-28T13:07:46.868Z,9.30
2024-01-28T13:12:55.576Z,9.11
2024-01-28T13:18:05.481Z,9.37
2024-01-28T13:23:12.769Z,10.00
2024-01-28T13:28:22.361Z,10.06
2024-01-28T13:33:32.942Z,9.98
2024-01-28T13:38:31.996Z,10.12
2024-01-28T13:43:40.935Z,10.63
2024-01-28T13:48:49.972Z,9.94
2024-01-28T13:53:58.763Z,9.74
2024-01-28T13:59:07.891Z,11.34
2024-01-28T14:04:16.535Z,11.50
2024-01-28T14:09:26.941Z,12.42
2024-01-28T14:14:25.652Z,13.01
2024-01-28T14:19:34.945Z,13.38
2024-01-28T14:24:44.119Z,14.55
2024-01-28T14:29:54.239Z,15.12
2024-01-28T14:34:53.328Z,14.47
2024-01-28T14:40:01.857Z,16.15
2024-01-28T14:45:10.418Z,17.57
2024-01-28T14:50:19.629Z,18.11
2024-01-28T14:55:28.538Z,17.40
2024-01-28T15:00:39.217Z,17.74
2024-01-28T15:05:37.735Z,17.31
2024-01-28T15:10:47.038Z,17.27
2024-01-28T15:15:55.885Z,14.85
2024-01-28T15:21:04.392Z,15.43
2024-01-28T15:26:13.524Z,13.63
2024-01-28T15:31:22.637Z,11.70
2024-01-28T15:36:31.299Z,12.42
2024-01-28T15:41:42.341Z,10.32
2024-01-28T15:46:41.417Z,11.07
2024-01-28T15:51:50.831Z,10.53
2024-01-28T15:56:59.355Z,10.35
2024-01-28T16:02:09.321Z,12.56
2024-01-28T16:07:18.213Z,13.79
2024-01-28T16:12:27.189Z,11.26
2024-01-28T16:17:36.064Z,10.09
2024-01-28T16:22:45.225Z,9.91
2024-01-28T16:27:54.262Z,9.72
2024-01-28T16:33:03.822Z,9.88
2024-01-28T16:38:13.831Z,9.68
2024-01-28T16:43:12.756Z,9.93
2024-01-28T16:48:22.770Z,9.51
2024-01-28T16:53:32.356Z,12.01
2024-01-28T16:58:41.718Z,9.90
2024-01-28T17:03:50.816Z,9.03
2024-01-28T17:09:01.080Z,8.52
2024-01-28T17:14:00.161Z,8.90
2024-01-28T17:19:08.821Z,8.32
2024-01-28T17:24:17.902Z,7.91
2024-01-28T17:29:26.937Z,7.96
2024-01-28T17:34:35.863Z,8.47
2024-01-28T17:39:44.565Z,8.43
2024-01-28T17:44:53.730Z,8.15
2024-01-28T17:50:02.805Z,7.84
2024-01-28T17:55:11.773Z,8.22
2024-01-28T18:00:21.332Z,8.65
2024-01-28T18:05:30.617Z,8.68
2024-01-28T18:10:39.460Z,8.53
2024-01-28T18:15:48.761Z,8.39
2024-01-28T18:20:57.437Z,8.22
2024-01-28T18:26:06.344Z,8.34
2024-01-28T18:31:15.307Z,7.51
2024-01-28T18:36:25.697Z,8.27
2024-01-28T18:41:24.201Z,8.23
2024-01-28T18:46:33.604Z,8.98
2024-01-28T18:51:42.626Z,9.39
2024-01-28T18:56:52.508Z,9.45
2024-01-28T19:02:01.439Z,8.85
2024-01-28T19:07:10.992Z,8.43
2024-01-28T19:12:19.903Z,7.60
2024-01-28T19:17:28.843Z,7.33
2024-01-28T19:22:37.264Z,8.57
2024-01-28T19:27:46.275Z,8.32
2024-01-28T19:32:55.300Z,7.98
2024-01-28T19:38:04.544Z,7.53
2024-01-28T19:43:14.425Z,7.76
2024-01-28T19:48:26.903Z,8.21
2024-01-28T19:53:25.556Z,8.05
2024-01-28T19:58:34.985Z,7.92
2024-01-28T20:03:45.027Z,7.75
2024-01-28T20:08:55.217Z,7.41
2024-01-28T20:13:56.300Z,7.80
2024-01-28T20:18:56.245Z,8.17
2024-01-28T20:24:04.466Z,7.98
2024-01-28T20:29:14.062Z,7.79
2024-01-28T20:34:23.002Z,8.12
2024-01-28T20:39:33.473Z,8.33
2024-01-28T20:44:32.327Z,8.03
2024-01-28T20:49:41.838Z,8.31
2024-01-28T20:54:51.419Z,7.76
2024-01-28T21:00:00.556Z,8.21
2024-01-28T21:05:09.133Z,8.15
2024-01-28T21:10:19.649Z,7.87
2024-01-28T21:15:27.848Z,8.87
2024-01-28T21:20:37.160Z,9.13
2024-01-28T21:25:46.161Z,8.44
2024-01-28T21:30:55.038Z,8.67
2024-01-28T21:36:03.588Z,8.42
2024-01-28T21:41:13.025Z,8.40
2024-01-28T21:46:22.225Z,8.32
2024-01-28T21:51:32.350Z,8.28
2024-01-28T21:56:31.061Z,7.04
2024-01-28T22:01:40.079Z,6.92
2024-01-28T22:06:48.656Z,7.04
2024-01-28T22:11:57.335Z,7.11
2024-01-28T22:17:06.064Z,7.13
2024-01-28T22:22:15.204Z,6.81
2024-01-28T22:27:23.629Z,7.87
2024-01-28T22:32:32.659Z,7.89
2024-01-28T22:37:41.980Z,7.76
2024-01-28T22:42:51.791Z,7.59
2024-01-28T22:48:00.617Z,7.16
2024-01-28T22:53:09.102Z,7.35
2024-01-28T22:58:17.568Z,7.39
2024-01-28T23:03:26.616Z,7.79
2024-01-28T23:08:35.940Z,7.90
2024-01-28T23:13:45.970Z,7.69
2024-01-28T23:18:54.596Z,7.55
2024-01-28T23:24:03.715Z,7.98
2024-01-28T23:29:12.212Z,7.62
2024-01-28T23:34:21.454Z,7.85
2024-01-28T23:39:30.270Z,8.05
2024-01-28T23:44:39.254Z,7.97
2024-01-28T23:49:48.069Z,8.24
2024-01-28T23:54:57.558Z,8.09
